sensor_id;sensor_type;location;lat;lon;timestamp;P1;durP1;ratioP1;P2;durP2;ratioP2
18917;SDS011;9591;52.742;13.650;2023-02-28T00:00:10;5.67;;;3.63;;
18917;SDS011;9591;52.742;13.650;2023-02-28T00:02:58;5.57;;;3.77;;
18917;SDS011;9591;52.742;13.650;2023-02-28T00:05:45;5.73;;;3.73;;
18917;SDS011;9591;52.742;13.650;2023-02-28T00:08:33;3.80;;;3.33;;
18917;SDS011;9591;52.742;13.650;2023-02-28T00:11:20;4.23;;;3.33;;
18917;SDS011;9591;52.742;13.650;2023-02-28T00:14:07;4.57;;;3.50;;
18917;SDS011;9591;52.742;13.650;2023-02-28T00:16:53;5.80;;;4.17;;
18917;SDS011;9591;52.742;13.650;2023-02-28T00:19:40;4.93;;;3.83;;
18917;SDS011;9591;52.742;13.650;2023-02-28T00:22:27;5.87;;;3.33;;
18917;SDS011;9591;52.742;13.650;2023-02-28T00:25:16;5.83;;;3.33;;
18917;SDS011;9591;52.742;13.650;2023-02-28T00:28:04;6.00;;;3.70;;
18917;SDS011;9591;52.742;13.650;2023-02-28T00:30:51;5.67;;;3.40;;
18917;SDS011;9591;52.742;13.650;2023-02-28T00:33:38;4.07;;;3.67;;
18917;SDS011;9591;52.742;13.650;2023-02-28T00:36:24;5.17;;;3.50;;
18917;SDS011;9591;52.742;13.650;2023-02-28T00:39:11;5.27;;;3.60;;
18917;SDS011;9591;52.742;13.650;2023-02-28T00:41:59;3.47;;;3.17;;
18917;SDS011;9591;52.742;13.650;2023-02-28T00:44:47;6.33;;;3.53;;
18917;SDS011;9591;52.742;13.650;2023-02-28T00:47:36;3.83;;;3.30;;
18917;SDS011;9591;52.742;13.650;2023-02-28T00:50:23;6.57;;;3.80;;
18917;SDS011;9591;52.742;13.650;2023-02-28T00:53:09;4.67;;;3.50;;
18917;SDS011;9591;52.742;13.650;2023-02-28T00:56:02;4.63;;;4.20;;
18917;SDS011;9591;52.742;13.650;2023-02-28T00:58:50;9.07;;;3.60;;
18917;SDS011;9591;52.742;13.650;2023-02-28T01:01:37;3.77;;;3.23;;
18917;SDS011;9591;52.742;13.650;2023-02-28T01:04:26;5.70;;;3.87;;
18917;SDS011;9591;52.742;13.650;2023-02-28T01:07:13;4.17;;;3.50;;
18917;SDS011;9591;52.742;13.650;2023-02-28T01:10:00;5.33;;;3.83;;
18917;SDS011;9591;52.742;13.650;2023-02-28T01:12:47;5.90;;;3.70;;
18917;SDS011;9591;52.742;13.650;2023-02-28T01:15:35;7.87;;;3.83;;
18917;SDS011;9591;52.742;13.650;2023-02-28T01:18:22;5.73;;;3.87;;
18917;SDS011;9591;52.742;13.650;2023-02-28T01:21:10;7.33;;;3.90;;
18917;SDS011;9591;52.742;13.650;2023-02-28T01:23:58;3.57;;;3.27;;
18917;SDS011;9591;52.742;13.650;2023-02-28T01:26:45;5.97;;;3.20;;
18917;SDS011;9591;52.742;13.650;2023-02-28T01:29:32;3.80;;;2.93;;
18917;SDS011;9591;52.742;13.650;2023-02-28T01:32:20;6.80;;;3.60;;
18917;SDS011;9591;52.742;13.650;2023-02-28T01:35:08;3.73;;;3.47;;
18917;SDS011;9591;52.742;13.650;2023-02-28T01:37:55;4.27;;;3.83;;
18917;SDS011;9591;52.742;13.650;2023-02-28T01:40:54;6.23;;;3.93;;
18917;SDS011;9591;52.742;13.650;2023-02-28T01:43:54;4.57;;;4.07;;
18917;SDS011;9591;52.742;13.650;2023-02-28T01:46:43;5.20;;;3.53;;
18917;SDS011;9591;52.742;13.650;2023-02-28T01:49:33;4.80;;;3.60;;
18917;SDS011;9591;52.742;13.650;2023-02-28T01:52:20;7.07;;;4.30;;
18917;SDS011;9591;52.742;13.650;2023-02-28T01:55:11;4.87;;;3.23;;
18917;SDS011;9591;52.742;13.650;2023-02-28T01:58:00;3.63;;;3.30;;
18917;SDS011;9591;52.742;13.650;2023-02-28T02:00:50;6.70;;;4.17;;
18917;SDS011;9591;52.742;13.650;2023-02-28T02:03:37;4.07;;;3.63;;
18917;SDS011;9591;52.742;13.650;2023-02-28T02:06:27;3.93;;;3.47;;
18917;SDS011;9591;52.742;13.650;2023-02-28T02:09:25;3.97;;;3.10;;
18917;SDS011;9591;52.742;13.650;2023-02-28T02:12:13;3.70;;;3.40;;
18917;SDS011;9591;52.742;13.650;2023-02-28T02:15:12;6.30;;;3.60;;
18917;SDS011;9591;52.742;13.650;2023-02-28T02:18:04;4.50;;;3.60;;
18917;SDS011;9591;52.742;13.650;2023-02-28T02:21:11;4.57;;;4.13;;
18917;SDS011;9591;52.742;13.650;2023-02-28T02:27:44;3.93;;;2.83;;
18917;SDS011;9591;52.742;13.650;2023-02-28T02:34:22;5.93;;;3.37;;
18917;SDS011;9591;52.742;13.650;2023-02-28T02:37:25;4.20;;;3.27;;
18917;SDS011;9591;52.742;13.650;2023-02-28T02:40:20;3.33;;;2.73;;
18917;SDS011;9591;52.742;13.650;2023-02-28T02:43:11;3.47;;;2.90;;
18917;SDS011;9591;52.742;13.650;2023-02-28T02:46:03;3.67;;;3.27;;
18917;SDS011;9591;52.742;13.650;2023-02-28T02:48:54;3.17;;;2.73;;
18917;SDS011;9591;52.742;13.650;2023-02-28T02:51:44;5.17;;;3.40;;
18917;SDS011;9591;52.742;13.650;2023-02-28T02:54:34;4.90;;;3.03;;
18917;SDS011;9591;52.742;13.650;2023-02-28T02:57:23;5.20;;;3.60;;
18917;SDS011;9591;52.742;13.650;2023-02-28T03:00:14;9.33;;;3.60;;
18917;SDS011;9591;52.742;13.650;2023-02-28T03:03:04;4.60;;;2.97;;
18917;SDS011;9591;52.742;13.650;2023-02-28T03:05:54;3.43;;;3.00;;
18917;SDS011;9591;52.742;13.650;2023-02-28T03:08:43;2.80;;;2.60;;
18917;SDS011;9591;52.742;13.650;2023-02-28T03:11:30;3.67;;;3.37;;
18917;SDS011;9591;52.742;13.650;2023-02-28T03:14:21;3.90;;;3.57;;
18917;SDS011;9591;52.742;13.650;2023-02-28T03:17:21;2.40;;;2.17;;
18917;SDS011;9591;52.742;13.650;2023-02-28T03:20:17;3.40;;;2.93;;
18917;SDS011;9591;52.742;13.650;2023-02-28T03:23:19;4.43;;;3.27;;
18917;SDS011;9591;52.742;13.650;2023-02-28T03:26:13;3.97;;;3.57;;
18917;SDS011;9591;52.742;13.650;2023-02-28T03:29:07;4.97;;;3.10;;
18917;SDS011;9591;52.742;13.650;2023-02-28T03:32:03;3.13;;;2.80;;
18917;SDS011;9591;52.742;13.650;2023-02-28T03:35:00;6.00;;;3.40;;
18917;SDS011;9591;52.742;13.650;2023-02-28T03:37:52;5.23;;;3.63;;
18917;SDS011;9591;52.742;13.650;2023-02-28T03:40:44;4.77;;;3.50;;
18917;SDS011;9591;52.742;13.650;2023-02-28T03:43:38;3.53;;;3.03;;
18917;SDS011;9591;52.742;13.650;2023-02-28T03:46:27;2.97;;;2.67;;
18917;SDS011;9591;52.742;13.650;2023-02-28T03:49:19;5.23;;;4.07;;
18917;SDS011;9591;52.742;13.650;2023-02-28T03:52:09;4.30;;;3.90;;
18917;SDS011;9591;52.742;13.650;2023-02-28T03:54:56;7.10;;;3.43;;
18917;SDS011;9591;52.742;13.650;2023-02-28T03:57:52;5.37;;;3.83;;
18917;SDS011;9591;52.742;13.650;2023-02-28T04:00:57;5.70;;;3.07;;
18917;SDS011;9591;52.742;13.650;2023-02-28T04:03:53;3.27;;;3.00;;
18917;SDS011;9591;52.742;13.650;2023-02-28T04:06:40;7.33;;;3.70;;
18917;SDS011;9591;52.742;13.650;2023-02-28T04:09:26;4.03;;;2.87;;
18917;SDS011;9591;52.742;13.650;2023-02-28T04:12:13;3.17;;;2.87;;
18917;SDS011;9591;52.742;13.650;2023-02-28T04:15:00;3.43;;;2.67;;
18917;SDS011;9591;52.742;13.650;2023-02-28T04:17:48;3.73;;;2.90;;
18917;SDS011;9591;52.742;13.650;2023-02-28T04:20:35;6.30;;;3.47;;
18917;SDS011;9591;52.742;13.650;2023-02-28T04:23:22;5.10;;;4.20;;
18917;SDS011;9591;52.742;13.650;2023-02-28T04:26:09;3.77;;;3.43;;
18917;SDS011;9591;52.742;13.650;2023-02-28T04:28:56;6.07;;;3.77;;
18917;SDS011;9591;52.742;13.650;2023-02-28T04:31:42;7.40;;;3.73;;
18917;SDS011;9591;52.742;13.650;2023-02-28T04:34:31;5.70;;;3.67;;
18917;SDS011;9591;52.742;13.650;2023-02-28T04:37:18;6.60;;;3.70;;
18917;SDS011;9591;52.742;13.650;2023-02-28T04:40:05;5.33;;;3.87;;
18917;SDS011;9591;52.742;13.650;2023-02-28T04:42:53;7.63;;;4.07;;
18917;SDS011;9591;52.742;13.650;2023-02-28T04:45:40;4.40;;;3.70;;
18917;SDS011;9591;52.742;13.650;2023-02-28T04:48:27;3.27;;;2.90;;
18917;SDS011;9591;52.742;13.650;2023-02-28T04:51:17;5.05;;;3.65;;
18917;SDS011;9591;52.742;13.650;2023-02-28T04:54:05;7.43;;;3.63;;
18917;SDS011;9591;52.742;13.650;2023-02-28T04:56:52;7.67;;;4.20;;
18917;SDS011;9591;52.742;13.650;2023-02-28T04:59:39;7.23;;;4.60;;
18917;SDS011;9591;52.742;13.650;2023-02-28T05:02:26;19.97;;;8.10;;
18917;SDS011;9591;52.742;13.650;2023-02-28T05:05:13;37.87;;;12.30;;
18917;SDS011;9591;52.742;13.650;2023-02-28T05:08:04;41.80;;;14.37;;
18917;SDS011;9591;52.742;13.650;2023-02-28T05:10:51;27.03;;;10.47;;
18917;SDS011;9591;52.742;13.650;2023-02-28T05:13:38;20.33;;;8.03;;
18917;SDS011;9591;52.742;13.650;2023-02-28T05:16:25;20.73;;;7.57;;
18917;SDS011;9591;52.742;13.650;2023-02-28T05:19:12;20.45;;;8.57;;
18917;SDS011;9591;52.742;13.650;2023-02-28T05:21:59;15.33;;;6.40;;
18917;SDS011;9591;52.742;13.650;2023-02-28T05:24:47;11.70;;;6.83;;
18917;SDS011;9591;52.742;13.650;2023-02-28T05:27:33;15.97;;;7.07;;
18917;SDS011;9591;52.742;13.650;2023-02-28T05:30:20;19.23;;;7.27;;
18917;SDS011;9591;52.742;13.650;2023-02-28T05:33:10;22.67;;;7.23;;
18917;SDS011;9591;52.742;13.650;2023-02-28T05:35:57;16.20;;;7.60;;
18917;SDS011;9591;52.742;13.650;2023-02-28T05:38:45;12.57;;;5.77;;
18917;SDS011;9591;52.742;13.650;2023-02-28T05:41:33;13.47;;;5.93;;
18917;SDS011;9591;52.742;13.650;2023-02-28T05:44:20;15.77;;;5.90;;
18917;SDS011;9591;52.742;13.650;2023-02-28T05:47:07;22.20;;;7.67;;
18917;SDS011;9591;52.742;13.650;2023-02-28T05:49:54;16.60;;;6.67;;
18917;SDS011;9591;52.742;13.650;2023-02-28T05:52:40;12.70;;;5.90;;
18917;SDS011;9591;52.742;13.650;2023-02-28T05:55:27;11.90;;;5.50;;
18917;SDS011;9591;52.742;13.650;2023-02-28T05:58:15;13.30;;;6.63;;
18917;SDS011;9591;52.742;13.650;2023-02-28T06:04:17;67.77;;;24.23;;
18917;SDS011;9591;52.742;13.650;2023-02-28T06:07:16;73.17;;;28.33;;
18917;SDS011;9591;52.742;13.650;2023-02-28T06:10:15;49.07;;;19.63;;
18917;SDS011;9591;52.742;13.650;2023-02-28T06:13:02;17.57;;;9.07;;
18917;SDS011;9591;52.742;13.650;2023-02-28T06:15:51;21.17;;;8.37;;
18917;SDS011;9591;52.742;13.650;2023-02-28T06:18:38;16.43;;;6.93;;
18917;SDS011;9591;52.742;13.650;2023-02-28T06:21:25;13.00;;;5.73;;
18917;SDS011;9591;52.742;13.650;2023-02-28T06:24:13;9.13;;;5.50;;
18917;SDS011;9591;52.742;13.650;2023-02-28T06:27:01;12.63;;;5.67;;
18917;SDS011;9591;52.742;13.650;2023-02-28T06:29:52;9.70;;;6.70;;
18917;SDS011;9591;52.742;13.650;2023-02-28T06:32:41;14.90;;;8.50;;
18917;SDS011;9591;52.742;13.650;2023-02-28T06:35:29;12.90;;;6.40;;
18917;SDS011;9591;52.742;13.650;2023-02-28T06:38:17;12.90;;;6.23;;
18917;SDS011;9591;52.742;13.650;2023-02-28T06:41:05;11.87;;;6.00;;
18917;SDS011;9591;52.742;13.650;2023-02-28T06:43:52;14.97;;;6.47;;
18917;SDS011;9591;52.742;13.650;2023-02-28T06:46:43;12.40;;;6.37;;
18917;SDS011;9591;52.742;13.650;2023-02-28T06:49:33;16.63;;;7.27;;
18917;SDS011;9591;52.742;13.650;2023-02-28T06:52:22;14.40;;;7.17;;
18917;SDS011;9591;52.742;13.650;2023-02-28T06:55:10;16.80;;;6.90;;
18917;SDS011;9591;52.742;13.650;2023-02-28T06:57:57;14.67;;;6.87;;
18917;SDS011;9591;52.742;13.650;2023-02-28T07:00:44;10.33;;;5.67;;
18917;SDS011;9591;52.742;13.650;2023-02-28T07:03:31;10.33;;;5.37;;
18917;SDS011;9591;52.742;13.650;2023-02-28T07:06:20;12.90;;;5.87;;
18917;SDS011;9591;52.742;13.650;2023-02-28T07:09:08;10.93;;;6.47;;
18917;SDS011;9591;52.742;13.650;2023-02-28T07:11:56;8.37;;;5.80;;
18917;SDS011;9591;52.742;13.650;2023-02-28T07:14:42;11.13;;;5.90;;
18917;SDS011;9591;52.742;13.650;2023-02-28T07:17:29;10.43;;;5.43;;
18917;SDS011;9591;52.742;13.650;2023-02-28T07:20:16;10.30;;;5.53;;
18917;SDS011;9591;52.742;13.650;2023-02-28T07:23:04;6.43;;;4.23;;
18917;SDS011;9591;52.742;13.650;2023-02-28T07:25:51;5.73;;;4.00;;
18917;SDS011;9591;52.742;13.650;2023-02-28T07:28:38;8.53;;;5.30;;
18917;SDS011;9591;52.742;13.650;2023-02-28T07:31:25;7.60;;;4.53;;
18917;SDS011;9591;52.742;13.650;2023-02-28T07:34:12;8.37;;;4.13;;
18917;SDS011;9591;52.742;13.650;2023-02-28T07:36:58;7.53;;;4.50;;
18917;SDS011;9591;52.742;13.650;2023-02-28T07:39:50;8.00;;;4.17;;
18917;SDS011;9591;52.742;13.650;2023-02-28T07:42:37;7.80;;;4.43;;
18917;SDS011;9591;52.742;13.650;2023-02-28T07:45:24;5.73;;;4.23;;
18917;SDS011;9591;52.742;13.650;2023-02-28T07:48:10;7.80;;;5.83;;
18917;SDS011;9591;52.742;13.650;2023-02-28T07:50:58;8.23;;;4.57;;
18917;SDS011;9591;52.742;13.650;2023-02-28T07:53:45;9.90;;;5.73;;
18917;SDS011;9591;52.742;13.650;2023-02-28T07:56:33;9.07;;;5.20;;
18917;SDS011;9591;52.742;13.650;2023-02-28T07:59:20;10.67;;;6.50;;
18917;SDS011;9591;52.742;13.650;2023-02-28T08:02:08;13.50;;;5.40;;
18917;SDS011;9591;52.742;13.650;2023-02-28T08:04:59;11.33;;;5.63;;
18917;SDS011;9591;52.742;13.650;2023-02-28T08:07:46;16.13;;;6.37;;
18917;SDS011;9591;52.742;13.650;2023-02-28T08:10:35;8.23;;;5.70;;
18917;SDS011;9591;52.742;13.650;2023-02-28T08:13:24;10.03;;;5.00;;
18917;SDS011;9591;52.742;13.650;2023-02-28T08:16:11;13.10;;;5.30;;
18917;SDS011;9591;52.742;13.650;2023-02-28T08:19:00;7.23;;;5.53;;
18917;SDS011;9591;52.742;13.650;2023-02-28T08:21:47;9.40;;;5.47;;
18917;SDS011;9591;52.742;13.650;2023-02-28T08:24:34;12.77;;;5.30;;
18917;SDS011;9591;52.742;13.650;2023-02-28T08:27:21;10.60;;;5.03;;
18917;SDS011;9591;52.742;13.650;2023-02-28T08:30:10;9.13;;;4.70;;
18917;SDS011;9591;52.742;13.650;2023-02-28T08:32:58;7.40;;;4.73;;
18917;SDS011;9591;52.742;13.650;2023-02-28T08:35:46;9.20;;;5.17;;
18917;SDS011;9591;52.742;13.650;2023-02-28T08:38:45;13.43;;;6.27;;
18917;SDS011;9591;52.742;13.650;2023-02-28T08:41:37;16.20;;;8.23;;
18917;SDS011;9591;52.742;13.650;2023-02-28T08:44:24;14.67;;;6.50;;
18917;SDS011;9591;52.742;13.650;2023-02-28T08:47:13;11.63;;;5.17;;
18917;SDS011;9591;52.742;13.650;2023-02-28T08:50:00;10.57;;;6.07;;
18917;SDS011;9591;52.742;13.650;2023-02-28T08:52:47;10.43;;;5.77;;
18917;SDS011;9591;52.742;13.650;2023-02-28T08:55:34;14.17;;;7.17;;
18917;SDS011;9591;52.742;13.650;2023-02-28T08:58:21;18.87;;;7.63;;
18917;SDS011;9591;52.742;13.650;2023-02-28T09:01:08;18.03;;;8.67;;
18917;SDS011;9591;52.742;13.650;2023-02-28T09:03:59;20.57;;;8.93;;
18917;SDS011;9591;52.742;13.650;2023-02-28T09:06:47;16.60;;;8.33;;
18917;SDS011;9591;52.742;13.650;2023-02-28T09:09:34;20.97;;;8.77;;
18917;SDS011;9591;52.742;13.650;2023-02-28T09:12:21;19.27;;;8.70;;
18917;SDS011;9591;52.742;13.650;2023-02-28T09:15:08;15.43;;;7.23;;
18917;SDS011;9591;52.742;13.650;2023-02-28T09:17:55;16.10;;;5.97;;
18917;SDS011;9591;52.742;13.650;2023-02-28T09:20:43;10.93;;;6.03;;
18917;SDS011;9591;52.742;13.650;2023-02-28T09:23:30;7.93;;;3.10;;
18917;SDS011;9591;52.742;13.650;2023-02-28T09:26:19;4.60;;;2.33;;
18917;SDS011;9591;52.742;13.650;2023-02-28T09:29:09;3.20;;;2.00;;
18917;SDS011;9591;52.742;13.650;2023-02-28T09:31:59;3.20;;;2.30;;
18917;SDS011;9591;52.742;13.650;2023-02-28T09:34:46;3.43;;;2.40;;
18917;SDS011;9591;52.742;13.650;2023-02-28T09:37:34;2.23;;;2.07;;
18917;SDS011;9591;52.742;13.650;2023-02-28T09:40:22;1.80;;;1.70;;
18917;SDS011;9591;52.742;13.650;2023-02-28T09:43:11;1.83;;;1.73;;
18917;SDS011;9591;52.742;13.650;2023-02-28T09:46:05;3.00;;;2.13;;
18917;SDS011;9591;52.742;13.650;2023-02-28T09:48:59;2.70;;;1.50;;
18917;SDS011;9591;52.742;13.650;2023-02-28T09:51:49;3.50;;;1.77;;
18917;SDS011;9591;52.742;13.650;2023-02-28T09:54:41;4.53;;;2.20;;
18917;SDS011;9591;52.742;13.650;2023-02-28T09:57:29;2.87;;;2.50;;
18917;SDS011;9591;52.742;13.650;2023-02-28T10:00:22;2.10;;;1.90;;
18917;SDS011;9591;52.742;13.650;2023-02-28T10:03:25;4.23;;;1.90;;
18917;SDS011;9591;52.742;13.650;2023-02-28T10:06:17;3.53;;;1.90;;
18917;SDS011;9591;52.742;13.650;2023-02-28T10:09:07;5.10;;;2.27;;
18917;SDS011;9591;52.742;13.650;2023-02-28T10:12:02;2.30;;;1.90;;
18917;SDS011;9591;52.742;13.650;2023-02-28T10:14:51;2.53;;;2.00;;
18917;SDS011;9591;52.742;13.650;2023-02-28T10:17:40;2.40;;;2.20;;
18917;SDS011;9591;52.742;13.650;2023-02-28T10:20:39;2.70;;;2.10;;
18917;SDS011;9591;52.742;13.650;2023-02-28T10:23:31;5.93;;;2.23;;
18917;SDS011;9591;52.742;13.650;2023-02-28T10:26:20;2.27;;;2.00;;
18917;SDS011;9591;52.742;13.650;2023-02-28T10:29:10;6.30;;;2.20;;
18917;SDS011;9591;52.742;13.650;2023-02-28T10:31:57;2.53;;;2.00;;
18917;SDS011;9591;52.742;13.650;2023-02-28T10:34:50;2.20;;;2.00;;
18917;SDS011;9591;52.742;13.650;2023-02-28T10:37:42;1.93;;;1.80;;
18917;SDS011;9591;52.742;13.650;2023-02-28T10:40:31;2.23;;;1.97;;
18917;SDS011;9591;52.742;13.650;2023-02-28T10:43:21;2.87;;;2.10;;
18917;SDS011;9591;52.742;13.650;2023-02-28T10:46:13;3.33;;;2.43;;
18917;SDS011;9591;52.742;13.650;2023-02-28T10:49:14;3.10;;;2.00;;
18917;SDS011;9591;52.742;13.650;2023-02-28T10:52:07;3.80;;;2.03;;
18917;SDS011;9591;52.742;13.650;2023-02-28T10:54:56;2.20;;;2.00;;
18917;SDS011;9591;52.742;13.650;2023-02-28T10:58:01;2.10;;;1.60;;
18917;SDS011;9591;52.742;13.650;2023-02-28T11:00:48;5.67;;;2.00;;
18917;SDS011;9591;52.742;13.650;2023-02-28T11:03:36;2.53;;;1.80;;
18917;SDS011;9591;52.742;13.650;2023-02-28T11:06:24;1.77;;;1.67;;
18917;SDS011;9591;52.742;13.650;2023-02-28T11:09:18;3.37;;;1.80;;
18917;SDS011;9591;52.742;13.650;2023-02-28T11:12:22;2.93;;;1.80;;
18917;SDS011;9591;52.742;13.650;2023-02-28T11:15:21;2.00;;;1.80;;
18917;SDS011;9591;52.742;13.650;2023-02-28T11:18:18;3.73;;;1.80;;
18917;SDS011;9591;52.742;13.650;2023-02-28T11:21:11;3.53;;;1.93;;
18917;SDS011;9591;52.742;13.650;2023-02-28T11:24:05;2.43;;;2.20;;
18917;SDS011;9591;52.742;13.650;2023-02-28T11:27:13;3.07;;;2.00;;
18917;SDS011;9591;52.742;13.650;2023-02-28T11:30:22;2.23;;;2.10;;
18917;SDS011;9591;52.742;13.650;2023-02-28T11:33:22;2.23;;;1.80;;
18917;SDS011;9591;52.742;13.650;2023-02-28T11:36:12;3.30;;;2.30;;
18917;SDS011;9591;52.742;13.650;2023-02-28T11:39:09;2.57;;;2.27;;
18917;SDS011;9591;52.742;13.650;2023-02-28T11:42:07;4.57;;;2.97;;
18917;SDS011;9591;52.742;13.650;2023-02-28T11:45:12;3.20;;;2.23;;
18917;SDS011;9591;52.742;13.650;2023-02-28T11:48:09;3.53;;;2.20;;
18917;SDS011;9591;52.742;13.650;2023-02-28T11:51:06;2.77;;;1.80;;
18917;SDS011;9591;52.742;13.650;2023-02-28T11:54:06;2.87;;;2.40;;
18917;SDS011;9591;52.742;13.650;2023-02-28T11:57:10;2.77;;;2.40;;
18917;SDS011;9591;52.742;13.650;2023-02-28T12:00:10;3.43;;;2.90;;
18917;SDS011;9591;52.742;13.650;2023-02-28T12:03:16;3.67;;;2.20;;
18917;SDS011;9591;52.742;13.650;2023-02-28T12:06:17;2.73;;;2.23;;
18917;SDS011;9591;52.742;13.650;2023-02-28T12:09:13;2.63;;;2.40;;
18917;SDS011;9591;52.742;13.650;2023-02-28T12:12:12;4.80;;;2.90;;
18917;SDS011;9591;52.742;13.650;2023-02-28T12:15:16;2.60;;;2.23;;
18917;SDS011;9591;52.742;13.650;2023-02-28T12:18:18;5.23;;;3.03;;
18917;SDS011;9591;52.742;13.650;2023-02-28T12:21:14;3.10;;;2.80;;
18917;SDS011;9591;52.742;13.650;2023-02-28T12:24:20;5.97;;;2.63;;
18917;SDS011;9591;52.742;13.650;2023-02-28T12:27:17;4.23;;;2.47;;
18917;SDS011;9591;52.742;13.650;2023-02-28T12:30:13;3.10;;;2.77;;
18917;SDS011;9591;52.742;13.650;2023-02-28T12:33:06;5.00;;;2.80;;
18917;SDS011;9591;52.742;13.650;2023-02-28T12:35:56;2.97;;;2.33;;
18917;SDS011;9591;52.742;13.650;2023-02-28T12:38:47;3.97;;;2.40;;
18917;SDS011;9591;52.742;13.650;2023-02-28T12:41:39;4.70;;;2.70;;
18917;SDS011;9591;52.742;13.650;2023-02-28T12:44:30;4.77;;;2.87;;
18917;SDS011;9591;52.742;13.650;2023-02-28T12:47:20;4.57;;;2.97;;
18917;SDS011;9591;52.742;13.650;2023-02-28T12:50:08;3.30;;;2.77;;
18917;SDS011;9591;52.742;13.650;2023-02-28T12:52:58;5.90;;;3.07;;
18917;SDS011;9591;52.742;13.650;2023-02-28T12:55:54;4.63;;;2.97;;
18917;SDS011;9591;52.742;13.650;2023-02-28T12:58:51;5.80;;;3.20;;
18917;SDS011;9591;52.742;13.650;2023-02-28T13:01:43;3.47;;;2.60;;
18917;SDS011;9591;52.742;13.650;2023-02-28T13:11:40;4.43;;;2.67;;
18917;SDS011;9591;52.742;13.650;2023-02-28T13:14:29;3.47;;;2.97;;
18917;SDS011;9591;52.742;13.650;2023-02-28T13:17:22;2.80;;;2.20;;
18917;SDS011;9591;52.742;13.650;2023-02-28T13:20:15;4.10;;;2.80;;
18917;SDS011;9591;52.742;13.650;2023-02-28T13:23:03;9.40;;;2.90;;
18917;SDS011;9591;52.742;13.650;2023-02-28T13:36:53;3.13;;;2.80;;
18917;SDS011;9591;52.742;13.650;2023-02-28T13:40:28;2.87;;;2.57;;
18917;SDS011;9591;52.742;13.650;2023-02-28T13:43:24;3.63;;;2.90;;
18917;SDS011;9591;52.742;13.650;2023-02-28T13:50:15;3.20;;;2.90;;
18917;SDS011;9591;52.742;13.650;2023-02-28T13:53:30;5.60;;;2.80;;
18917;SDS011;9591;52.742;13.650;2023-02-28T13:56:37;7.07;;;2.90;;
18917;SDS011;9591;52.742;13.650;2023-02-28T13:59:34;3.47;;;3.00;;
18917;SDS011;9591;52.742;13.650;2023-02-28T14:02:35;4.80;;;3.20;;
18917;SDS011;9591;52.742;13.650;2023-02-28T14:05:33;5.80;;;3.00;;
18917;SDS011;9591;52.742;13.650;2023-02-28T14:08:21;4.40;;;3.07;;
18917;SDS011;9591;52.742;13.650;2023-02-28T14:11:22;7.43;;;3.47;;
18917;SDS011;9591;52.742;13.650;2023-02-28T14:17:45;6.47;;;3.33;;
18917;SDS011;9591;52.742;13.650;2023-02-28T14:20:32;6.83;;;3.47;;
18917;SDS011;9591;52.742;13.650;2023-02-28T14:23:24;3.10;;;2.80;;
18917;SDS011;9591;52.742;13.650;2023-02-28T14:26:37;4.67;;;3.00;;
18917;SDS011;9591;52.742;13.650;2023-02-28T14:33:01;2.93;;;2.57;;
18917;SDS011;9591;52.742;13.650;2023-02-28T14:36:00;5.63;;;3.13;;
18917;SDS011;9591;52.742;13.650;2023-02-28T14:38:53;3.90;;;2.67;;
18917;SDS011;9591;52.742;13.650;2023-02-28T14:41:44;4.40;;;3.07;;
18917;SDS011;9591;52.742;13.650;2023-02-28T14:44:32;3.90;;;2.93;;
18917;SDS011;9591;52.742;13.650;2023-02-28T14:47:20;3.37;;;2.67;;
18917;SDS011;9591;52.742;13.650;2023-02-28T14:50:17;3.67;;;2.80;;
18917;SDS011;9591;52.742;13.650;2023-02-28T14:53:06;4.33;;;2.93;;
18917;SDS011;9591;52.742;13.650;2023-02-28T14:56:03;4.57;;;2.80;;
18917;SDS011;9591;52.742;13.650;2023-02-28T14:58:51;4.50;;;2.53;;
18917;SDS011;9591;52.742;13.650;2023-02-28T15:01:39;4.50;;;2.93;;
18917;SDS011;9591;52.742;13.650;2023-02-28T15:04:28;5.30;;;2.73;;
18917;SDS011;9591;52.742;13.650;2023-02-28T15:07:19;5.53;;;2.30;;
18917;SDS011;9591;52.742;13.650;2023-02-28T15:10:16;4.13;;;2.83;;
18917;SDS011;9591;52.742;13.650;2023-02-28T15:13:05;5.07;;;2.97;;
18917;SDS011;9591;52.742;13.650;2023-02-28T15:15:53;5.20;;;3.10;;
18917;SDS011;9591;52.742;13.650;2023-02-28T15:18:48;3.20;;;2.27;;
18917;SDS011;9591;52.742;13.650;2023-02-28T15:21:40;2.73;;;2.30;;
18917;SDS011;9591;52.742;13.650;2023-02-28T15:24:35;3.33;;;2.57;;
18917;SDS011;9591;52.742;13.650;2023-02-28T15:27:25;3.73;;;3.23;;
18917;SDS011;9591;52.742;13.650;2023-02-28T15:30:15;6.90;;;3.77;;
18917;SDS011;9591;52.742;13.650;2023-02-28T15:33:15;12.10;;;5.33;;
18917;SDS011;9591;52.742;13.650;2023-02-28T15:36:06;3.60;;;2.60;;
18917;SDS011;9591;52.742;13.650;2023-02-28T15:39:00;7.23;;;2.77;;
18917;SDS011;9591;52.742;13.650;2023-02-28T15:42:09;4.10;;;2.97;;
18917;SDS011;9591;52.742;13.650;2023-02-28T15:44:57;3.23;;;2.93;;
18917;SDS011;9591;52.742;13.650;2023-02-28T15:47:45;4.40;;;3.10;;
18917;SDS011;9591;52.742;13.650;2023-02-28T15:50:32;6.67;;;3.40;;
18917;SDS011;9591;52.742;13.650;2023-02-28T15:53:22;7.40;;;3.80;;
18917;SDS011;9591;52.742;13.650;2023-02-28T15:56:16;6.67;;;3.33;;
18917;SDS011;9591;52.742;13.650;2023-02-28T15:59:12;4.60;;;2.60;;
18917;SDS011;9591;52.742;13.650;2023-02-28T16:02:03;4.60;;;3.47;;
18917;SDS011;9591;52.742;13.650;2023-02-28T16:05:12;4.70;;;3.37;;
18917;SDS011;9591;52.742;13.650;2023-02-28T16:08:15;3.77;;;3.33;;
18917;SDS011;9591;52.742;13.650;2023-02-28T16:11:03;5.03;;;3.40;;
18917;SDS011;9591;52.742;13.650;2023-02-28T16:13:51;6.87;;;3.10;;
18917;SDS011;9591;52.742;13.650;2023-02-28T16:16:41;5.10;;;2.53;;
18917;SDS011;9591;52.742;13.650;2023-02-28T16:19:30;4.57;;;3.23;;
18917;SDS011;9591;52.742;13.650;2023-02-28T16:22:18;6.90;;;2.83;;
18917;SDS011;9591;52.742;13.650;2023-02-28T16:25:05;2.50;;;2.30;;
18917;SDS011;9591;52.742;13.650;2023-02-28T16:27:54;3.83;;;3.07;;
18917;SDS011;9591;52.742;13.650;2023-02-28T16:30:43;3.37;;;2.40;;
18917;SDS011;9591;52.742;13.650;2023-02-28T16:33:30;3.60;;;2.60;;
18917;SDS011;9591;52.742;13.650;2023-02-28T16:36:19;6.47;;;3.30;;
18917;SDS011;9591;52.742;13.650;2023-02-28T16:39:08;4.33;;;3.37;;
18917;SDS011;9591;52.742;13.650;2023-02-28T16:41:54;3.90;;;3.00;;
18917;SDS011;9591;52.742;13.650;2023-02-28T16:44:41;3.97;;;3.03;;
18917;SDS011;9591;52.742;13.650;2023-02-28T16:47:30;3.73;;;3.33;;
18917;SDS011;9591;52.742;13.650;2023-02-28T16:50:19;7.23;;;3.77;;
18917;SDS011;9591;52.742;13.650;2023-02-28T16:53:08;4.17;;;2.63;;
18917;SDS011;9591;52.742;13.650;2023-02-28T16:55:56;6.80;;;3.20;;
18917;SDS011;9591;52.742;13.650;2023-02-28T16:58:43;3.40;;;3.10;;
18917;SDS011;9591;52.742;13.650;2023-02-28T17:01:30;5.53;;;2.87;;
18917;SDS011;9591;52.742;13.650;2023-02-28T17:04:19;4.63;;;2.93;;
18917;SDS011;9591;52.742;13.650;2023-02-28T17:07:08;4.93;;;3.33;;
18917;SDS011;9591;52.742;13.650;2023-02-28T17:10:02;4.30;;;3.10;;
18917;SDS011;9591;52.742;13.650;2023-02-28T17:12:53;3.50;;;3.20;;
18917;SDS011;9591;52.742;13.650;2023-02-28T17:15:56;6.43;;;3.93;;
18917;SDS011;9591;52.742;13.650;2023-02-28T17:18:43;4.63;;;3.20;;
18917;SDS011;9591;52.742;13.650;2023-02-28T17:21:32;8.60;;;3.93;;
18917;SDS011;9591;52.742;13.650;2023-02-28T17:24:19;6.57;;;5.13;;
18917;SDS011;9591;52.742;13.650;2023-02-28T17:27:15;10.93;;;5.30;;
18917;SDS011;9591;52.742;13.650;2023-02-28T17:30:02;22.23;;;9.93;;
18917;SDS011;9591;52.742;13.650;2023-02-28T17:32:49;17.83;;;9.40;;
18917;SDS011;9591;52.742;13.650;2023-02-28T17:35:36;28.63;;;12.00;;
18917;SDS011;9591;52.742;13.650;2023-02-28T17:38:24;28.27;;;11.80;;
18917;SDS011;9591;52.742;13.650;2023-02-28T17:41:13;18.20;;;9.63;;
18917;SDS011;9591;52.742;13.650;2023-02-28T17:44:00;27.77;;;12.47;;
18917;SDS011;9591;52.742;13.650;2023-02-28T17:46:47;18.73;;;9.40;;